sensor_id;sensor_type;location;lat;lon;timestamp;pressure;altitude;pressure_sealevel;temperature;humidity
68873;BME280;55907;50.806;12.882;2023-02-10T00:03:00;989.2;;;-2.1;64.1
68873;BME280;55907;50.806;12.882;2023-02-10T00:06:02;989.2;;;-2.2;64.2
68873;BME280;55907;50.806;12.882;2023-02-10T00:09:03;989.2;;;-2.2;64.4
68873;BME280;55907;50.806;12.882;2023-02-10T00:12:05;989.2;;;-2.2;64.5
68873;BME280;55907;50.806;12.882;2023-02-10T00:15:07;989.2;;;-2.3;64.6
68873;BME280;55907;50.806;12.882;2023-02-10T00:18:09;989.2;;;-2.3;64.8
68873;BME280;55907;50.806;12.882;2023-02-10T00:21:12;989.2;;;-2.2;64.8
68873;BME280;55907;50.806;12.882;2023-02-10T00:24:11;989.2;;;-2.2;64.6
68873;BME280;55907;50.806;12.882;2023-02-10T00:27:13;989.3;;;-2.2;64.7
68873;BME280;55907;50.806;12.882;2023-02-10T00:30:15;989.3;;;-2.2;64.6
68873;BME280;55907;50.806;12.882;2023-02-10T00:33:16;989.3;;;-2.2;64.5
68873;BME280;55907;50.806;12.882;2023-02-10T00:36:18;989.3;;;-2.3;64.7
68873;BME280;55907;50.806;12.882;2023-02-10T00:39:19;989.4;;;-2.2;64.3
68873;BME280;55907;50.806;12.882;2023-02-10T00:42:21;989.5;;;-2.2;64.2
68873;BME280;55907;50.806;12.882;2023-02-10T00:45:22;989.5;;;-2.3;64.5
68873;BME280;55907;50.806;12.882;2023-02-10T00:48:24;989.5;;;-2.3;64.6
68873;BME280;55907;50.806;12.882;2023-02-10T00:51:26;989.5;;;-2.3;64.5
68873;BME280;55907;50.806;12.882;2023-02-10T00:54:28;989.5;;;-2.3;64.6
68873;BME280;55907;50.806;12.882;2023-02-10T00:57:29;989.6;;;-2.3;64.3
68873;BME280;55907;50.806;12.882;2023-02-10T01:00:31;989.5;;;-2.4;64.6
68873;BME280;55907;50.806;12.882;2023-02-10T01:03:33;989.5;;;-2.4;64.8
68873;BME280;55907;50.806;12.882;2023-02-10T01:06:34;989.5;;;-2.4;64.6
68873;BME280;55907;50.806;12.882;2023-02-10T01:09:36;989.5;;;-2.5;64.7
68873;BME280;55907;50.806;12.882;2023-02-10T01:12:38;989.5;;;-2.4;64.2
68873;BME280;55907;50.806;12.882;2023-02-10T01:15:41;989.6;;;-2.4;64.1
68873;BME280;55907;50.806;12.882;2023-02-10T01:18:41;989.6;;;-2.4;64.0
68873;BME280;55907;50.806;12.882;2023-02-10T01:21:42;989.7;;;-2.4;64.3
68873;BME280;55907;50.806;12.882;2023-02-10T01:24:44;989.7;;;-2.3;64.2
68873;BME280;55907;50.806;12.882;2023-02-10T01:27:46;989.7;;;-2.3;64.1
68873;BME280;55907;50.806;12.882;2023-02-10T01:30:47;989.7;;;-2.3;63.8
68873;BME280;55907;50.806;12.882;2023-02-10T01:36:51;989.6;;;-2.3;63.9
68873;BME280;55907;50.806;12.882;2023-02-10T01:39:52;989.6;;;-2.4;64.0
68873;BME280;55907;50.806;12.882;2023-02-10T01:42:54;989.7;;;-2.4;64.0
68873;BME280;55907;50.806;12.882;2023-02-10T01:45:56;989.7;;;-2.3;63.9
68873;BME280;55907;50.806;12.882;2023-02-10T01:49:00;989.7;;;-2.3;64.0
68873;BME280;55907;50.806;12.882;2023-02-10T01:52:01;989.7;;;-2.3;63.8
68873;BME280;55907;50.806;12.882;2023-02-10T01:55:04;989.7;;;-2.4;63.8
68873;BME280;55907;50.806;12.882;2023-02-10T01:58:06;989.7;;;-2.4;63.8
68873;BME280;55907;50.806;12.882;2023-02-10T02:01:04;989.7;;;-2.3;63.7
68873;BME280;55907;50.806;12.882;2023-02-10T02:04:06;989.7;;;-2.3;63.8
68873;BME280;55907;50.806;12.882;2023-02-10T02:07:07;989.8;;;-2.4;63.9
68873;BME280;55907;50.806;12.882;2023-02-10T02:10:09;989.7;;;-2.4;63.9
68873;BME280;55907;50.806;12.882;2023-02-10T02:13:15;989.7;;;-2.4;64.2
68873;BME280;55907;50.806;12.882;2023-02-10T02:16:18;989.7;;;-2.4;64.2
68873;BME280;55907;50.806;12.882;2023-02-10T02:19:31;989.6;;;-2.5;64.2
68873;BME280;55907;50.806;12.882;2023-02-10T02:22:30;989.7;;;-2.5;64.1
68873;BME280;55907;50.806;12.882;2023-02-10T02:25:28;989.7;;;-2.5;64.6
68873;BME280;55907;50.806;12.882;2023-02-10T02:28:25;989.7;;;-2.5;64.4
68873;BME280;55907;50.806;12.882;2023-02-10T02:31:35;989.7;;;-2.5;64.7
68873;BME280;55907;50.806;12.882;2023-02-10T02:34:30;989.7;;;-2.5;64.5
68873;BME280;55907;50.806;12.882;2023-02-10T02:37:28;989.8;;;-2.5;64.4
68873;BME280;55907;50.806;12.882;2023-02-10T02:40:25;989.8;;;-2.5;64.5
68873;BME280;55907;50.806;12.882;2023-02-10T02:43:27;989.8;;;-2.5;64.5
68873;BME280;55907;50.806;12.882;2023-02-10T02:46:37;989.8;;;-2.5;64.4
68873;BME280;55907;50.806;12.882;2023-02-10T02:49:35;989.8;;;-2.5;64.7
68873;BME280;55907;50.806;12.882;2023-02-10T02:52:40;989.8;;;-2.4;64.2
68873;BME280;55907;50.806;12.882;2023-02-10T02:55:40;989.8;;;-2.3;64.1
68873;BME280;55907;50.806;12.882;2023-02-10T02:58:42;989.9;;;-2.2;63.9
68873;BME280;55907;50.806;12.882;2023-02-10T03:01:42;989.8;;;-2.1;63.7
68873;BME280;55907;50.806;12.882;2023-02-10T03:04:39;989.8;;;-2.0;63.6
68873;BME280;55907;50.806;12.882;2023-02-10T03:05:03;unavailable;;;unavailable;unavailable
68873;BME280;55907;50.806;12.882;2023-02-10T03:05:17;989.8;;;-2.0;63.6
68873;BME280;55907;50.806;12.882;2023-02-10T03:07:40;989.8;;;-1.9;63.1
68873;BME280;55907;50.806;12.882;2023-02-10T03:10:42;989.8;;;-1.8;62.9
68873;BME280;55907;50.806;12.882;2023-02-10T03:13:43;989.8;;;-1.8;62.6
68873;BME280;55907;50.806;12.882;2023-02-10T03:16:45;989.8;;;-1.9;62.4
68873;BME280;55907;50.806;12.882;2023-02-10T03:19:46;989.8;;;-1.8;62.5
68873;BME280;55907;50.806;12.882;2023-02-10T03:22:48;989.8;;;-1.7;62.2
68873;BME280;55907;50.806;12.882;2023-02-10T03:25:50;989.9;;;-1.7;62.1
68873;BME280;55907;50.806;12.882;2023-02-10T03:28:51;989.8;;;-1.7;62.1
68873;BME280;55907;50.806;12.882;2023-02-10T03:31:53;989.9;;;-1.8;62.1
68873;BME280;55907;50.806;12.882;2023-02-10T03:34:55;989.9;;;-1.8;62.2
68873;BME280;55907;50.806;12.882;2023-02-10T03:37:57;989.9;;;-1.7;62.1
68873;BME280;55907;50.806;12.882;2023-02-10T03:40:58;989.9;;;-1.7;62.1
68873;BME280;55907;50.806;12.882;2023-02-10T03:44:00;990.0;;;-1.7;62.2
68873;BME280;55907;50.806;12.882;2023-02-10T03:50:03;989.9;;;-1.6;62.2
68873;BME280;55907;50.806;12.882;2023-02-10T03:56:06;989.9;;;-1.6;62.2
68873;BME280;55907;50.806;12.882;2023-02-10T03:59:09;989.8;;;-1.5;62.1
68873;BME280;55907;50.806;12.882;2023-02-10T04:02:10;989.8;;;-1.6;62.3
68873;BME280;55907;50.806;12.882;2023-02-10T04:05:11;989.8;;;-1.6;62.3
68873;BME280;55907;50.806;12.882;2023-02-10T04:08:13;990.0;;;-1.4;62.5
68873;BME280;55907;50.806;12.882;2023-02-10T04:11:15;990.0;;;-1.3;62.5
68873;BME280;55907;50.806;12.882;2023-02-10T04:14:16;989.9;;;-1.3;62.6
68873;BME280;55907;50.806;12.882;2023-02-10T04:17:18;990.1;;;-1.2;62.7
68873;BME280;55907;50.806;12.882;2023-02-10T04:20:20;990.1;;;-1.2;62.6
68873;BME280;55907;50.806;12.882;2023-02-10T04:23:22;990.2;;;-1.1;62.8
68873;BME280;55907;50.806;12.882;2023-02-10T04:26:23;990.2;;;-1.0;63.5
68873;BME280;55907;50.806;12.882;2023-02-10T04:29:24;990.2;;;-1.0;63.2
68873;BME280;55907;50.806;12.882;2023-02-10T04:32:26;990.2;;;-0.9;63.0
68873;BME280;55907;50.806;12.882;2023-02-10T04:35:28;990.3;;;-0.9;63.1
68873;BME280;55907;50.806;12.882;2023-02-10T04:38:29;990.3;;;-0.8;63.0
68873;BME280;55907;50.806;12.882;2023-02-10T04:41:31;990.3;;;-0.8;63.7
68873;BME280;55907;50.806;12.882;2023-02-10T04:44:33;990.3;;;-0.8;64.3
68873;BME280;55907;50.806;12.882;2023-02-10T04:47:34;990.3;;;-0.8;64.9
68873;BME280;55907;50.806;12.882;2023-02-10T04:50:37;990.3;;;-0.8;64.6
68873;BME280;55907;50.806;12.882;2023-02-10T04:53:39;990.3;;;-0.6;63.9
68873;BME280;55907;50.806;12.882;2023-02-10T04:56:39;990.4;;;-0.6;64.4
68873;BME280;55907;50.806;12.882;2023-02-10T04:59:41;990.4;;;-0.6;65.9
68873;BME280;55907;50.806;12.882;2023-02-10T05:02:42;990.4;;;-0.7;67.5
68873;BME280;55907;50.806;12.882;2023-02-10T05:05:44;990.4;;;-0.7;68.1
68873;BME280;55907;50.806;12.882;2023-02-10T05:08:46;990.5;;;-0.7;70.5
68873;BME280;55907;50.806;12.882;2023-02-10T05:11:47;990.5;;;-0.7;71.3
68873;BME280;55907;50.806;12.882;2023-02-10T05:14:49;990.5;;;-0.8;73.6
68873;BME280;55907;50.806;12.882;2023-02-10T05:17:50;990.5;;;-0.9;74.7
68873;BME280;55907;50.806;12.882;2023-02-10T05:20:52;990.6;;;-0.9;75.9
68873;BME280;55907;50.806;12.882;2023-02-10T05:23:54;990.7;;;-0.9;76.9
68873;BME280;55907;50.806;12.882;2023-02-10T05:29:57;990.6;;;-0.9;78.2
68873;BME280;55907;50.806;12.882;2023-02-10T05:32:59;990.6;;;-0.9;78.5
68873;BME280;55907;50.806;12.882;2023-02-10T05:36:01;990.6;;;-0.9;79.2
68873;BME280;55907;50.806;12.882;2023-02-10T05:39:02;990.7;;;-0.9;79.3
68873;BME280;55907;50.806;12.882;2023-02-10T05:42:04;990.7;;;-0.8;79.4
68873;BME280;55907;50.806;12.882;2023-02-10T05:45:06;990.8;;;-0.8;79.3
68873;BME280;55907;50.806;12.882;2023-02-10T05:48:07;990.8;;;-0.7;79.6
68873;BME280;55907;50.806;12.882;2023-02-10T05:51:09;990.8;;;-0.7;80.5
68873;BME280;55907;50.806;12.882;2023-02-10T05:54:11;990.9;;;-0.7;80.2
68873;BME280;55907;50.806;12.882;2023-02-10T05:57:12;990.9;;;-0.7;79.8
68873;BME280;55907;50.806;12.882;2023-02-10T06:00:15;990.9;;;-0.7;80.2
68873;BME280;55907;50.806;12.882;2023-02-10T06:03:15;990.9;;;-0.8;80.2
68873;BME280;55907;50.806;12.882;2023-02-10T06:06:17;991.0;;;-0.7;79.6
68873;BME280;55907;50.806;12.882;2023-02-10T06:09:19;991.0;;;-0.7;80.4
68873;BME280;55907;50.806;12.882;2023-02-10T06:12:20;991.0;;;-0.7;80.3
68873;BME280;55907;50.806;12.882;2023-02-10T06:15:22;991.0;;;-0.6;80.0
68873;BME280;55907;50.806;12.882;2023-02-10T06:18:23;991.1;;;-0.6;80.0
68873;BME280;55907;50.806;12.882;2023-02-10T06:20:05;unavailable;;;unavailable;unavailable
68873;BME280;55907;50.806;12.882;2023-02-10T06:20:08;991.1;;;-0.5;80.3
68873;BME280;55907;50.806;12.882;2023-02-10T06:21:25;991.1;;;-0.5;79.8
68873;BME280;55907;50.806;12.882;2023-02-10T06:23:08;unavailable;;;unavailable;unavailable
68873;BME280;55907;50.806;12.882;2023-02-10T06:23:18;991.1;;;-0.5;79.9
68873;BME280;55907;50.806;12.882;2023-02-10T06:24:26;991.1;;;-0.4;79.8
68873;BME280;55907;50.806;12.882;2023-02-10T06:27:28;991.2;;;-0.2;79.1
68873;BME280;55907;50.806;12.882;2023-02-10T06:31:02;unavailable;;;unavailable;unavailable
68873;BME280;55907;50.806;12.882;2023-02-10T06:31:08;991.2;;;-0.1;78.2
68873;BME280;55907;50.806;12.882;2023-02-10T06:33:32;991.1;;;-0.0;78.1
68873;BME280;55907;50.806;12.882;2023-02-10T06:34:44;unavailable;;;unavailable;unavailable
68873;BME280;55907;50.806;12.882;2023-02-10T06:34:47;991.1;;;0.2;78.0
68873;BME280;55907;50.806;12.882;2023-02-10T06:36:33;991.1;;;0.2;77.8
68873;BME280;55907;50.806;12.882;2023-02-10T06:39:34;991.1;;;0.3;76.8
68873;BME280;55907;50.806;12.882;2023-02-10T06:42:36;991.2;;;0.3;76.7
68873;BME280;55907;50.806;12.882;2023-02-10T06:45:38;991.2;;;0.3;76.1
68873;BME280;55907;50.806;12.882;2023-02-10T06:48:39;991.1;;;0.3;76.1
68873;BME280;55907;50.806;12.882;2023-02-10T06:51:41;991.1;;;0.3;75.8
68873;BME280;55907;50.806;12.882;2023-02-10T06:54:43;991.2;;;0.2;76.1
68873;BME280;55907;50.806;12.882;2023-02-10T06:57:44;991.2;;;0.3;76.3
68873;BME280;55907;50.806;12.882;2023-02-10T07:00:46;991.3;;;0.2;75.6
68873;BME280;55907;50.806;12.882;2023-02-10T07:03:47;991.3;;;0.2;75.7
68873;BME280;55907;50.806;12.882;2023-02-10T07:06:49;991.4;;;0.2;76.1
68873;BME280;55907;50.806;12.882;2023-02-10T07:09:51;991.5;;;0.1;76.1
68873;BME280;55907;50.806;12.882;2023-02-10T07:12:52;991.4;;;0.1;76.5
68873;BME280;55907;50.806;12.882;2023-02-10T07:15:54;991.5;;;0.1;76.5
68873;BME280;55907;50.806;12.882;2023-02-10T07:18:55;991.5;;;0.1;76.8
68873;BME280;55907;50.806;12.882;2023-02-10T07:21:57;991.6;;;0.1;77.1
68873;BME280;55907;50.806;12.882;2023-02-10T07:24:59;991.6;;;0.2;77.4
68873;BME280;55907;50.806;12.882;2023-02-10T07:28:00;991.7;;;0.2;76.7
68873;BME280;55907;50.806;12.882;2023-02-10T07:31:02;991.7;;;0.3;76.9
68873;BME280;55907;50.806;12.882;2023-02-10T07:34:04;991.7;;;0.3;76.4
68873;BME280;55907;50.806;12.882;2023-02-10T07:37:06;991.8;;;0.4;76.2
68873;BME280;55907;50.806;12.882;2023-02-10T07:40:08;991.9;;;0.4;77.5
68873;BME280;55907;50.806;12.882;2023-02-10T07:43:08;991.9;;;0.4;76.5
68873;BME280;55907;50.806;12.882;2023-02-10T07:46:10;991.9;;;0.5;76.2
68873;BME280;55907;50.806;12.882;2023-02-10T07:49:12;991.9;;;0.5;75.9
68873;BME280;55907;50.806;12.882;2023-02-10T07:52:13;991.9;;;0.5;76.1
68873;BME280;55907;50.806;12.882;2023-02-10T07:55:15;991.9;;;0.5;76.0
68873;BME280;55907;50.806;12.882;2023-02-10T07:58:17;991.9;;;0.6;76.0
68873;BME280;55907;50.806;12.882;2023-02-10T08:01:18;991.7;;;0.6;76.4
68873;BME280;55907;50.806;12.882;2023-02-10T08:04:20;991.7;;;0.7;75.9
68873;BME280;55907;50.806;12.882;2023-02-10T08:07:22;991.8;;;0.7;76.2
68873;BME280;55907;50.806;12.882;2023-02-10T08:10:23;991.8;;;0.8;76.4
68873;BME280;55907;50.806;12.882;2023-02-10T08:13:25;991.8;;;0.9;75.7
68873;BME280;55907;50.806;12.882;2023-02-10T08:16:26;991.9;;;0.9;76.5
68873;BME280;55907;50.806;12.882;2023-02-10T08:19:28;991.9;;;0.9;76.2
68873;BME280;55907;50.806;12.882;2023-02-10T08:22:30;991.9;;;1.0;76.3
68873;BME280;55907;50.806;12.882;2023-02-10T08:25:32;991.8;;;1.2;75.8
68873;BME280;55907;50.806;12.882;2023-02-10T08:28:34;991.8;;;1.3;75.6
68873;BME280;55907;50.806;12.882;2023-02-10T08:31:34;991.8;;;1.3;75.9
68873;BME280;55907;50.806;12.882;2023-02-10T08:34:37;991.8;;;1.4;75.1
68873;BME280;55907;50.806;12.882;2023-02-10T08:37:38;991.8;;;1.4;75.1
68873;BME280;55907;50.806;12.882;2023-02-10T08:40:39;991.9;;;1.6;74.9
68873;BME280;55907;50.806;12.882;2023-02-10T08:43:42;991.9;;;1.7;74.5
68873;BME280;55907;50.806;12.882;2023-02-10T08:46:43;991.9;;;1.8;74.4
68873;BME280;55907;50.806;12.882;2023-02-10T08:49:44;991.9;;;1.9;73.9
68873;BME280;55907;50.806;12.882;2023-02-10T08:52:46;991.8;;;1.9;74.0
68873;BME280;55907;50.806;12.882;2023-02-10T08:55:55;991.9;;;2.0;74.0
68873;BME280;55907;50.806;12.882;2023-02-10T08:58:49;992.0;;;2.1;73.6
68873;BME280;55907;50.806;12.882;2023-02-10T09:01:51;992.0;;;2.2;73.1
68873;BME280;55907;50.806;12.882;2023-02-10T09:04:52;992.1;;;2.3;73.2
68873;BME280;55907;50.806;12.882;2023-02-10T09:07:54;992.2;;;2.4;72.9
68873;BME280;55907;50.806;12.882;2023-02-10T09:10:55;992.2;;;2.3;73.0
68873;BME280;55907;50.806;12.882;2023-02-10T09:13:57;992.2;;;2.3;72.8
68873;BME280;55907;50.806;12.882;2023-02-10T09:16:58;992.1;;;2.4;72.6
68873;BME280;55907;50.806;12.882;2023-02-10T09:20:00;992.2;;;2.4;72.6
68873;BME280;55907;50.806;12.882;2023-02-10T09:23:02;992.3;;;2.5;72.5
68873;BME280;55907;50.806;12.882;2023-02-10T09:26:04;992.3;;;2.7;72.1
68873;BME280;55907;50.806;12.882;2023-02-10T09:29:05;992.2;;;2.6;72.4
68873;BME280;55907;50.806;12.882;2023-02-10T09:32:06;992.3;;;2.6;72.7
68873;BME280;55907;50.806;12.882;2023-02-10T09:35:08;992.2;;;2.9;71.9
68873;BME280;55907;50.806;12.882;2023-02-10T09:38:11;992.2;;;2.9;71.4
68873;BME280;55907;50.806;12.882;2023-02-10T09:41:16;992.2;;;3.0;71.7
68873;BME280;55907;50.806;12.882;2023-02-10T09:44:16;992.2;;;3.2;71.3
68873;BME280;55907;50.806;12.882;2023-02-10T09:47:23;992.3;;;3.3;70.1
68873;BME280;55907;50.806;12.882;2023-02-10T09:50:31;992.2;;;3.3;69.8
68873;BME280;55907;50.806;12.882;2023-02-10T09:53:19;992.2;;;3.3;70.1
68873;BME280;55907;50.806;12.882;2023-02-10T09:56:21;992.2;;;3.3;70.2
68873;BME280;55907;50.806;12.882;2023-02-10T09:59:21;992.3;;;3.3;69.9
68873;BME280;55907;50.806;12.882;2023-02-10T10:02:27;992.3;;;3.4;69.6
68873;BME280;55907;50.806;12.882;2023-02-10T10:04:15;unavailable;;;unavailable;unavailable
68873;BME280;55907;50.806;12.882;2023-02-10T10:04:18;992.3;;;3.4;69.7
68873;BME280;55907;50.806;12.882;2023-02-10T10:05:37;992.3;;;3.5;69.7
68873;BME280;55907;50.806;12.882;2023-02-10T10:08:30;992.4;;;3.5;69.4
68873;BME280;55907;50.806;12.882;2023-02-10T10:11:32;992.4;;;3.5;68.9
68873;BME280;55907;50.806;12.882;2023-02-10T10:12:00;unavailable;;;unavailable;unavailable
68873;BME280;55907;50.806;12.882;2023-02-10T10:12:03;992.4;;;3.7;68.6
68873;BME280;55907;50.806;12.882;2023-02-10T10:12:51;unavailable;;;unavailable;unavailable
68873;BME280;55907;50.806;12.882;2023-02-10T10:12:55;992.3;;;3.7;68.3
68873;BME280;55907;50.806;12.882;2023-02-10T10:14:35;992.4;;;3.6;68.2
68873;BME280;55907;50.806;12.882;2023-02-10T10:16:49;992.4;;;3.7;67.8
68873;BME280;55907;50.806;12.882;2023-02-10T10:17:43;992.4;;;3.9;67.6
68873;BME280;55907;50.806;12.882;2023-02-10T10:20:05;992.4;;;4.0;67.3
68873;BME280;55907;50.806;12.882;2023-02-10T10:20:39;992.4;;;4.1;67.3
68873;BME280;55907;50.806;12.882;2023-02-10T10:22:01;992.4;;;4.2;66.7
68873;BME280;55907;50.806;12.882;2023-02-10T10:23:40;992.4;;;4.4;66.7
68873;BME280;55907;50.806;12.882;2023-02-10T10:25:53;992.5;;;4.3;65.9
68873;BME280;55907;50.806;12.882;2023-02-10T10:29:48;992.5;;;4.3;66.5
68873;BME280;55907;50.806;12.882;2023-02-10T10:32:43;992.4;;;4.0;67.2
68873;BME280;55907;50.806;12.882;2023-02-10T10:35:42;992.4;;;3.8;67.6
68873;BME280;55907;50.806;12.882;2023-02-10T10:38:46;992.4;;;4.2;66.8
68873;BME280;55907;50.806;12.882;2023-02-10T10:41:44;992.3;;;5.0;65.1
68873;BME280;55907;50.806;12.882;2023-02-10T10:44:45;992.3;;;6.3;61.4
68873;BME280;55907;50.806;12.882;2023-02-10T10:47:48;992.3;;;7.1;58.2
68873;BME280;55907;50.806;12.882;2023-02-10T10:50:47;992.2;;;7.6;56.6
68873;BME280;55907;50.806;12.882;2023-02-10T10:53:51;992.3;;;8.0;55.5
68873;BME280;55907;50.806;12.882;2023-02-10T10:56:53;992.2;;;8.4;54.3
68873;BME280;55907;50.806;12.882;2023-02-10T10:59:54;992.1;;;8.5;54.0
68873;BME280;55907;50.806;12.882;2023-02-10T11:02:56;992.1;;;8.8;52.8
68873;BME280;55907;50.806;12.882;2023-02-10T11:06:00;992.0;;;9.1;51.8
68873;BME280;55907;50.806;12.882;2023-02-10T11:12:02;992.0;;;9.6;51.6
68873;BME280;55907;50.806;12.882;2023-02-10T11:15:00;992.1;;;9.9;50.7
68873;BME280;55907;50.806;12.882;2023-02-10T11:18:02;992.1;;;9.8;49.8
68873;BME280;55907;50.806;12.882;2023-02-10T11:21:04;992.1;;;9.8;49.8
68873;BME280;55907;50.806;12.882;2023-02-10T11:24:15;992.0;;;9.6;49.0
68873;BME280;55907;50.806;12.882;2023-02-10T11:27:13;992.0;;;9.2;50.1
68873;BME280;55907;50.806;12.882;2023-02-10T11:30:22;992.0;;;9.1;49.4
68873;BME280;55907;50.806;12.882;2023-02-10T11:33:19;992.0;;;9.0;49.6
68873;BME280;55907;50.806;12.882;2023-02-10T11:36:10;992.1;;;9.4;49.0
68873;BME280;55907;50.806;12.882;2023-02-10T11:39:19;992.1;;;9.3;49.5
68873;BME280;55907;50.806;12.882;2023-02-10T11:42:17;992.1;;;8.9;49.6
68873;BME280;55907;50.806;12.882;2023-02-10T11:45:17;992.1;;;8.6;51.2
68873;BME280;55907;50.806;12.882;2023-02-10T11:48:19;992.0;;;8.3;52.2
68873;BME280;55907;50.806;12.882;2023-02-10T11:51:17;992.1;;;7.8;53.0
68873;BME280;55907;50.806;12.882;2023-02-10T11:54:19;992.0;;;7.6;53.2
68873;BME280;55907;50.806;12.882;2023-02-10T11:57:30;992.0;;;7.3;54.7
68873;BME280;55907;50.806;12.882;2023-02-10T12:00:28;992.0;;;6.9;55.5
68873;BME280;55907;50.806;12.882;2023-02-10T12:03:35;992.0;;;6.6;57.2
68873;BME280;55907;50.806;12.882;2023-02-10T12:06:30;992.0;;;6.3;58.3
68873;BME280;55907;50.806;12.882;2023-02-10T12:09:32;992.0;;;6.0;58.9
68873;BME280;55907;50.806;12.882;2023-02-10T12:12:33;992.1;;;5.4;60.4
68873;BME280;55907;50.806;12.882;2023-02-10T12:15:35;992.0;;;5.3;60.9
68873;BME280;55907;50.806;12.882;2023-02-10T12:18:44;992.1;;;5.2;61.5
68873;BME280;55907;50.806;12.882;2023-02-10T12:21:47;992.1;;;5.4;60.6
68873;BME280;55907;50.806;12.882;2023-02-10T12:24:44;992.1;;;5.6;60.0
68873;BME280;55907;50.806;12.882;2023-02-10T12:27:49;992.1;;;5.7;60.3
68873;BME280;55907;50.806;12.882;2023-02-10T12:30:43;992.0;;;5.8;59.8
68873;BME280;55907;50.806;12.882;2023-02-10T12:33:47;992.0;;;5.9;59.7
68873;BME280;55907;50.806;12.882;2023-02-10T12:36:47;992.0;;;5.9;59.5
68873;BME280;55907;50.806;12.882;2023-02-10T12:39:49;991.9;;;5.8;59.5
68873;BME280;55907;50.806;12.882;2023-02-10T12:42:49;991.9;;;5.8;59.6
68873;BME280;55907;50.806;12.882;2023-02-10T12:45:48;991.9;;;5.5;60.2
68873;BME280;55907;50.806;12.882;2023-02-10T12:48:55;991.9;;;5.3;61.0
68873;BME280;55907;50.806;12.882;2023-02-10T12:51:57;991.9;;;5.2;61.0
68873;BME280;55907;50.806;12.882;2023-02-10T12:54:54;991.8;;;5.0;61.8
68873;BME280;55907;50.806;12.882;2023-02-10T12:57:55;991.7;;;4.9;61.9
68873;BME280;55907;50.806;12.882;2023-02-10T13:01:00;991.7;;;4.9;62.6
68873;BME280;55907;50.806;12.882;2023-02-10T13:03:59;991.7;;;5.0;62.5
68873;BME280;55907;50.806;12.882;2023-02-10T13:06:59;991.7;;;5.1;62.1
68873;BME280;55907;50.806;12.882;2023-02-10T13:10:02;991.6;;;4.9;62.4
68873;BME280;55907;50.806;12.882;2023-02-10T13:16:04;991.6;;;4.9;62.5
68873;BME280;55907;50.806;12.882;2023-02-10T13:19:07;991.5;;;5.2;61.8
68873;BME280;55907;50.806;12.882;2023-02-10T13:22:08;991.6;;;5.3;61.4
68873;BME280;55907;50.806;12.882;2023-02-10T13:25:09;991.6;;;5.2;62.1
68873;BME280;55907;50.806;12.882;2023-02-10T13:28:14;991.6;;;5.2;62.6
68873;BME280;55907;50.806;12.882;2023-02-10T13:31:19;991.6;;;5.0;62.5
68873;BME280;55907;50.806;12.882;2023-02-10T13:34:16;991.6;;;4.9;62.8
68873;BME280;55907;50.806;12.882;2023-02-10T13:37:14;991.6;;;4.9;63.1
68873;BME280;55907;50.806;12.882;2023-02-10T13:40:17;991.6;;;4.9;63.4
68873;BME280;55907;50.806;12.882;2023-02-10T13:43:25;991.6;;;4.9;62.7
68873;BME280;55907;50.806;12.882;2023-02-10T13:46:20;991.6;;;4.8;63.5
68873;BME280;55907;50.806;12.882;2023-02-10T13:49:18;991.5;;;4.8;63.6
68873;BME280;55907;50.806;12.882;2023-02-10T13:52:22;991.5;;;4.7;63.6
68873;BME280;55907;50.806;12.882;2023-02-10T13:58:29;991.6;;;5.2;62.4
68873;BME280;55907;50.806;12.882;2023-02-10T14:01:35;991.6;;;5.4;62.3
68873;BME280;55907;50.806;12.882;2023-02-10T14:04:29;991.6;;;5.5;61.9
68873;BME280;55907;50.806;12.882;2023-02-10T14:07:35;991.6;;;5.5;61.7
68873;BME280;55907;50.806;12.882;2023-02-10T14:10:32;991.6;;;5.7;61.6
68873;BME280;55907;50.806;12.882;2023-02-10T14:13:31;991.5;;;5.8;61.7
68873;BME280;55907;50.806;12.882;2023-02-10T14:16:36;991.5;;;5.7;61.2
68873;BME280;55907;50.806;12.882;2023-02-10T14:19:35;991.4;;;5.8;61.2
68873;BME280;55907;50.806;12.882;2023-02-10T14:22:36;991.4;;;5.9;60.6
68873;BME280;55907;50.806;12.882;2023-02-10T14:25:38;991.5;;;5.9;60.5
68873;BME280;55907;50.806;12.882;2023-02-10T14:28:40;991.5;;;5.9;60.4
68873;BME280;55907;50.806;12.882;2023-02-10T14:31:41;991.5;;;5.9;60.3
68873;BME280;55907;50.806;12.882;2023-02-10T14:34:52;991.5;;;6.0;60.4
68873;BME280;55907;50.806;12.882;2023-02-10T14:37:48;991.5;;;5.9;60.1
68873;BME280;55907;50.806;12.882;2023-02-10T14:40:44;991.5;;;5.9;60.1
68873;BME280;55907;50.806;12.882;2023-02-10T14:43:45;991.5;;;5.8;60.2
68873;BME280;55907;50.806;12.882;2023-02-10T14:46:47;991.5;;;5.8;60.4
68873;BME280;55907;50.806;12.882;2023-02-10T14:49:49;991.5;;;5.7;60.7
68873;BME280;55907;50.806;12.882;2023-02-10T14:52:50;991.4;;;5.6;60.7
68873;BME280;55907;50.806;12.882;2023-02-10T14:55:53;991.4;;;5.4;61.0
68873;BME280;55907;50.806;12.882;2023-02-10T14:58:54;991.4;;;5.3;61.3
68873;BME280;55907;50.806;12.882;2023-02-10T15:01:55;991.4;;;5.3;61.4
68873;BME280;55907;50.806;12.882;2023-02-10T15:04:59;991.3;;;5.2;61.6
68873;BME280;55907;50.806;12.882;2023-02-10T15:07:58;991.3;;;5.1;61.9
68873;BME280;55907;50.806;12.882;2023-02-10T15:11:00;991.3;;;5.0;62.2
68873;BME280;55907;50.806;12.882;2023-02-10T15:14:00;991.2;;;5.0;62.2
68873;BME280;55907;50.806;12.882;2023-02-10T15:17:04;991.2;;;4.8;62.6
68873;BME280;55907;50.806;12.882;2023-02-10T15:20:20;991.2;;;4.7;63.2
68873;BME280;55907;50.806;12.882;2023-02-10T15:23:15;991.1;;;4.5;63.9
68873;BME280;55907;50.806;12.882;2023-02-10T15:26:18;991.0;;;4.4;64.1
68873;BME280;55907;50.806;12.882;2023-02-10T15:29:12;991.0;;;4.3;64.4
68873;BME280;55907;50.806;12.882;2023-02-10T15:32:15;991.0;;;4.2;64.5
68873;BME280;55907;50.806;12.882;2023-02-10T15:35:13;991.0;;;4.1;65.2
68873;BME280;55907;50.806;12.882;2023-02-10T15:38:13;991.0;;;4.0;65.4
68873;BME280;55907;50.806;12.882;2023-02-10T15:41:29;991.0;;;4.0;65.3
68873;BME280;55907;50.806;12.882;2023-02-10T15:44:27;991.0;;;3.9;65.8
68873;BME280;55907;50.806;12.882;2023-02-10T15:47:22;991.0;;;3.8;65.9
68873;BME280;55907;50.806;12.882;2023-02-10T15:50:19;990.9;;;3.8;66.3
68873;BME280;55907;50.806;12.882;2023-02-10T15:53:20;990.9;;;3.7;66.3
68873;BME280;55907;50.806;12.882;2023-02-10T15:56:23;990.9;;;3.6;66.6
68873;BME280;55907;50.806;12.882;2023-02-10T15:59:24;990.9;;;3.5;67.1
68873;BME280;55907;50.806;12.882;2023-02-10T16:05:28;991.0;;;3.3;67.8
68873;BME280;55907;50.806;12.882;2023-02-10T16:08:28;991.0;;;3.3;67.9
68873;BME280;55907;50.806;12.882;2023-02-10T16:11:30;991.0;;;3.2;68.0
68873;BME280;55907;50.806;12.882;2023-02-10T16:14:32;990.9;;;3.1;68.3
68873;BME280;55907;50.806;12.882;2023-02-10T16:17:37;991.0;;;3.1;68.0
68873;BME280;55907;50.806;12.882;2023-02-10T16:20:35;990.9;;;3.0;68.8
68873;BME280;55907;50.806;12.882;2023-02-10T16:23:36;990.9;;;3.0;68.4
68873;BME280;55907;50.806;12.882;2023-02-10T16:26:38;990.9;;;2.9;68.2
68873;BME280;55907;50.806;12.882;2023-02-10T16:29:39;991.0;;;2.9;67.9